Terminal Aerodrome Forecast
Issued by NWS Louisville, KY

Home | Current Version | Previous Version | Text Only | Print | Product List | Glossary On
Versions: 1 2 3 4 5 6 7 8 9 10 11 12 13
000
FTUS43 KLMK 021700
TAFBWG
TAF
KBWG 021729Z 0218/0318 05007KT P6SM BKN250
     FM030200 VRB03KT P6SM BKN060
     FM031200 17005KT 3SM -RA BKN015=

USA.gov is the U.S. government's official web portal to all federal, state and local government web resources and services.